sensor_id;sensor_type;location;lat;lon;timestamp;P1;durP1;ratioP1;P2;durP2;ratioP2
57824;SDS011;43912;44.188;21.094;2022-07-29T00:02:17;11.35;;;6.90;;
57824;SDS011;43912;44.188;21.094;2022-07-29T00:04:43;11.63;;;6.57;;
57824;SDS011;43912;44.188;21.094;2022-07-29T00:07:09;12.93;;;6.78;;
57824;SDS011;43912;44.188;21.094;2022-07-29T00:09:35;11.55;;;6.95;;
57824;SDS011;43912;44.188;21.094;2022-07-29T00:12:01;13.13;;;6.70;;
57824;SDS011;43912;44.188;21.094;2022-07-29T00:14:27;10.23;;;6.70;;
57824;SDS011;43912;44.188;21.094;2022-07-29T00:16:53;12.43;;;7.15;;
57824;SDS011;43912;44.188;21.094;2022-07-29T00:19:20;10.25;;;6.57;;
57824;SDS011;43912;44.188;21.094;2022-07-29T00:21:46;15.43;;;6.78;;
57824;SDS011;43912;44.188;21.094;2022-07-29T00:24:12;10.40;;;7.38;;
57824;SDS011;43912;44.188;21.094;2022-07-29T00:26:38;11.55;;;8.00;;
57824;SDS011;43912;44.188;21.094;2022-07-29T00:29:04;15.20;;;8.05;;
57824;SDS011;43912;44.188;21.094;2022-07-29T00:31:30;11.98;;;8.02;;
57824;SDS011;43912;44.188;21.094;2022-07-29T00:33:56;12.77;;;8.07;;
57824;SDS011;43912;44.188;21.094;2022-07-29T00:36:22;12.88;;;8.65;;
57824;SDS011;43912;44.188;21.094;2022-07-29T00:38:49;11.98;;;7.53;;
57824;SDS011;43912;44.188;21.094;2022-07-29T00:41:15;13.80;;;8.77;;
57824;SDS011;43912;44.188;21.094;2022-07-29T00:43:42;11.80;;;8.07;;
57824;SDS011;43912;44.188;21.094;2022-07-29T00:46:08;11.25;;;7.75;;
57824;SDS011;43912;44.188;21.094;2022-07-29T00:48:34;12.90;;;7.97;;
57824;SDS011;43912;44.188;21.094;2022-07-29T00:51:01;17.13;;;8.70;;
57824;SDS011;43912;44.188;21.094;2022-07-29T00:53:27;14.57;;;8.20;;
57824;SDS011;43912;44.188;21.094;2022-07-29T00:55:54;13.18;;;7.97;;
57824;SDS011;43912;44.188;21.094;2022-07-29T00:58:21;11.32;;;8.32;;
57824;SDS011;43912;44.188;21.094;2022-07-29T01:00:47;12.68;;;8.45;;
57824;SDS011;43912;44.188;21.094;2022-07-29T01:03:13;11.30;;;7.85;;
57824;SDS011;43912;44.188;21.094;2022-07-29T01:05:39;13.80;;;8.93;;
57824;SDS011;43912;44.188;21.094;2022-07-29T01:08:06;11.98;;;8.05;;
57824;SDS011;43912;44.188;21.094;2022-07-29T01:10:33;12.82;;;7.70;;
57824;SDS011;43912;44.188;21.094;2022-07-29T01:13:02;14.57;;;8.07;;
57824;SDS011;43912;44.188;21.094;2022-07-29T01:15:28;15.85;;;7.65;;
57824;SDS011;43912;44.188;21.094;2022-07-29T01:20:41;12.15;;;8.30;;
57824;SDS011;43912;44.188;21.094;2022-07-29T01:31:04;10.23;;;7.78;;
57824;SDS011;43912;44.188;21.094;2022-07-29T01:33:31;12.40;;;7.65;;
57824;SDS011;43912;44.188;21.094;2022-07-29T01:36:14;15.05;;;8.35;;
57824;SDS011;43912;44.188;21.094;2022-07-29T01:38:42;11.73;;;8.00;;
57824;SDS011;43912;44.188;21.094;2022-07-29T01:41:10;12.65;;;8.48;;
57824;SDS011;43912;44.188;21.094;2022-07-29T01:43:39;10.18;;;7.90;;
57824;SDS011;43912;44.188;21.094;2022-07-29T01:46:09;11.38;;;8.00;;
57824;SDS011;43912;44.188;21.094;2022-07-29T01:53:55;12.40;;;7.45;;
57824;SDS011;43912;44.188;21.094;2022-07-29T01:56:25;10.32;;;7.75;;
57824;SDS011;43912;44.188;21.094;2022-07-29T01:58:54;10.93;;;7.72;;
57824;SDS011;43912;44.188;21.094;2022-07-29T02:01:21;12.65;;;8.30;;
57824;SDS011;43912;44.188;21.094;2022-07-29T02:03:49;10.35;;;7.93;;
57824;SDS011;43912;44.188;21.094;2022-07-29T02:06:17;10.65;;;8.40;;
57824;SDS011;43912;44.188;21.094;2022-07-29T02:08:44;11.50;;;8.68;;
57824;SDS011;43912;44.188;21.094;2022-07-29T02:11:11;12.40;;;8.25;;
57824;SDS011;43912;44.188;21.094;2022-07-29T02:13:37;11.45;;;8.55;;
57824;SDS011;43912;44.188;21.094;2022-07-29T02:16:04;12.70;;;8.02;;
57824;SDS011;43912;44.188;21.094;2022-07-29T02:18:31;12.88;;;8.63;;
57824;SDS011;43912;44.188;21.094;2022-07-29T02:20:58;10.60;;;7.78;;
57824;SDS011;43912;44.188;21.094;2022-07-29T02:23:25;12.68;;;8.55;;
57824;SDS011;43912;44.188;21.094;2022-07-29T02:25:53;12.95;;;9.27;;
57824;SDS011;43912;44.188;21.094;2022-07-29T02:28:19;10.88;;;8.15;;
57824;SDS011;43912;44.188;21.094;2022-07-29T02:30:47;11.30;;;8.15;;
57824;SDS011;43912;44.188;21.094;2022-07-29T02:33:14;15.50;;;9.13;;
57824;SDS011;43912;44.188;21.094;2022-07-29T02:35:41;10.75;;;8.77;;
57824;SDS011;43912;44.188;21.094;2022-07-29T02:38:10;12.98;;;8.88;;
57824;SDS011;43912;44.188;21.094;2022-07-29T02:40:56;10.82;;;8.48;;
57824;SDS011;43912;44.188;21.094;2022-07-29T02:43:23;11.23;;;7.82;;
57824;SDS011;43912;44.188;21.094;2022-07-29T02:45:51;9.55;;;7.38;;
57824;SDS011;43912;44.188;21.094;2022-07-29T02:48:18;10.38;;;7.88;;
57824;SDS011;43912;44.188;21.094;2022-07-29T02:50:51;11.45;;;8.18;;
57824;SDS011;43912;44.188;21.094;2022-07-29T02:53:22;11.48;;;8.05;;
57824;SDS011;43912;44.188;21.094;2022-07-29T02:55:56;12.25;;;7.85;;
57824;SDS011;43912;44.188;21.094;2022-07-29T03:00:51;11.00;;;7.95;;
57824;SDS011;43912;44.188;21.094;2022-07-29T03:03:17;11.10;;;7.78;;
57824;SDS011;43912;44.188;21.094;2022-07-29T03:05:44;13.45;;;7.65;;
57824;SDS011;43912;44.188;21.094;2022-07-29T03:08:11;9.40;;;6.93;;
57824;SDS011;43912;44.188;21.094;2022-07-29T03:10:39;11.30;;;7.45;;
57824;SDS011;43912;44.188;21.094;2022-07-29T03:13:05;9.52;;;7.47;;
57824;SDS011;43912;44.188;21.094;2022-07-29T03:15:32;11.50;;;7.78;;
57824;SDS011;43912;44.188;21.094;2022-07-29T03:17:59;10.77;;;7.78;;
57824;SDS011;43912;44.188;21.094;2022-07-29T03:20:25;9.88;;;7.20;;
57824;SDS011;43912;44.188;21.094;2022-07-29T03:22:52;11.30;;;7.30;;
57824;SDS011;43912;44.188;21.094;2022-07-29T03:25:18;12.15;;;8.07;;
57824;SDS011;43912;44.188;21.094;2022-07-29T03:27:45;9.27;;;7.15;;
57824;SDS011;43912;44.188;21.094;2022-07-29T03:30:12;11.07;;;7.28;;
57824;SDS011;43912;44.188;21.094;2022-07-29T03:32:38;10.57;;;7.43;;
57824;SDS011;43912;44.188;21.094;2022-07-29T03:35:05;12.25;;;7.47;;
57824;SDS011;43912;44.188;21.094;2022-07-29T03:37:31;10.63;;;7.53;;
57824;SDS011;43912;44.188;21.094;2022-07-29T03:39:58;10.27;;;7.47;;
57824;SDS011;43912;44.188;21.094;2022-07-29T03:42:26;9.38;;;7.35;;
57824;SDS011;43912;44.188;21.094;2022-07-29T03:44:54;10.50;;;6.50;;
57824;SDS011;43912;44.188;21.094;2022-07-29T03:47:22;10.52;;;7.05;;
57824;SDS011;43912;44.188;21.094;2022-07-29T03:49:50;10.52;;;7.72;;
57824;SDS011;43912;44.188;21.094;2022-07-29T03:52:18;10.52;;;6.65;;
57824;SDS011;43912;44.188;21.094;2022-07-29T03:54:44;9.95;;;6.68;;
57824;SDS011;43912;44.188;21.094;2022-07-29T03:57:11;13.75;;;7.35;;
57824;SDS011;43912;44.188;21.094;2022-07-29T03:59:37;13.98;;;7.65;;
57824;SDS011;43912;44.188;21.094;2022-07-29T04:02:04;10.32;;;7.72;;
57824;SDS011;43912;44.188;21.094;2022-07-29T04:04:34;11.75;;;6.78;;
57824;SDS011;43912;44.188;21.094;2022-07-29T04:07:01;10.70;;;7.38;;
57824;SDS011;43912;44.188;21.094;2022-07-29T04:09:27;10.88;;;7.40;;
57824;SDS011;43912;44.188;21.094;2022-07-29T04:11:53;22.42;;;9.05;;
57824;SDS011;43912;44.188;21.094;2022-07-29T04:14:19;13.50;;;7.60;;
57824;SDS011;43912;44.188;21.094;2022-07-29T04:16:45;11.98;;;7.63;;
57824;SDS011;43912;44.188;21.094;2022-07-29T04:19:11;11.75;;;7.28;;
57824;SDS011;43912;44.188;21.094;2022-07-29T04:21:38;12.57;;;8.77;;
57824;SDS011;43912;44.188;21.094;2022-07-29T04:24:05;12.68;;;8.13;;
57824;SDS011;43912;44.188;21.094;2022-07-29T04:26:31;12.45;;;6.60;;
57824;SDS011;43912;44.188;21.094;2022-07-29T04:28:57;14.30;;;7.18;;
57824;SDS011;43912;44.188;21.094;2022-07-29T04:31:23;12.63;;;6.43;;
57824;SDS011;43912;44.188;21.094;2022-07-29T04:33:49;15.77;;;7.28;;
57824;SDS011;43912;44.188;21.094;2022-07-29T04:36:16;15.15;;;7.40;;
57824;SDS011;43912;44.188;21.094;2022-07-29T04:38:42;14.32;;;7.32;;
57824;SDS011;43912;44.188;21.094;2022-07-29T04:41:08;15.57;;;9.02;;
57824;SDS011;43912;44.188;21.094;2022-07-29T04:43:34;13.45;;;9.52;;
57824;SDS011;43912;44.188;21.094;2022-07-29T04:46:01;12.18;;;8.82;;
57824;SDS011;43912;44.188;21.094;2022-07-29T04:48:27;14.65;;;10.02;;
57824;SDS011;43912;44.188;21.094;2022-07-29T04:50:53;13.38;;;10.48;;
57824;SDS011;43912;44.188;21.094;2022-07-29T04:53:19;14.80;;;10.95;;
57824;SDS011;43912;44.188;21.094;2022-07-29T04:55:46;13.35;;;8.95;;
57824;SDS011;43912;44.188;21.094;2022-07-29T04:58:12;11.82;;;8.00;;
57824;SDS011;43912;44.188;21.094;2022-07-29T05:00:38;14.88;;;8.65;;
57824;SDS011;43912;44.188;21.094;2022-07-29T05:03:05;14.00;;;8.80;;
57824;SDS011;43912;44.188;21.094;2022-07-29T05:05:31;14.40;;;8.88;;
57824;SDS011;43912;44.188;21.094;2022-07-29T05:07:57;19.42;;;9.57;;
57824;SDS011;43912;44.188;21.094;2022-07-29T05:10:23;12.63;;;9.43;;
57824;SDS011;43912;44.188;21.094;2022-07-29T05:12:49;16.30;;;9.30;;
57824;SDS011;43912;44.188;21.094;2022-07-29T05:15:16;16.20;;;9.82;;
57824;SDS011;43912;44.188;21.094;2022-07-29T05:17:42;11.60;;;8.90;;
57824;SDS011;43912;44.188;21.094;2022-07-29T05:20:09;15.02;;;10.00;;
57824;SDS011;43912;44.188;21.094;2022-07-29T05:22:35;10.38;;;8.70;;
57824;SDS011;43912;44.188;21.094;2022-07-29T05:25:01;11.48;;;6.95;;
57824;SDS011;43912;44.188;21.094;2022-07-29T05:27:28;10.98;;;6.80;;
57824;SDS011;43912;44.188;21.094;2022-07-29T05:29:54;11.30;;;6.38;;
57824;SDS011;43912;44.188;21.094;2022-07-29T05:32:20;9.07;;;6.70;;
57824;SDS011;43912;44.188;21.094;2022-07-29T05:34:46;10.55;;;6.45;;
57824;SDS011;43912;44.188;21.094;2022-07-29T05:37:12;11.05;;;6.82;;
57824;SDS011;43912;44.188;21.094;2022-07-29T05:39:38;10.55;;;6.75;;
57824;SDS011;43912;44.188;21.094;2022-07-29T05:42:08;10.75;;;7.28;;
57824;SDS011;43912;44.188;21.094;2022-07-29T05:44:38;12.38;;;8.45;;
57824;SDS011;43912;44.188;21.094;2022-07-29T05:47:04;15.85;;;9.57;;
57824;SDS011;43912;44.188;21.094;2022-07-29T05:49:31;17.92;;;11.30;;
57824;SDS011;43912;44.188;21.094;2022-07-29T05:51:58;17.10;;;12.57;;
57824;SDS011;43912;44.188;21.094;2022-07-29T05:54:24;19.08;;;13.43;;
57824;SDS011;43912;44.188;21.094;2022-07-29T05:56:50;15.65;;;12.13;;
57824;SDS011;43912;44.188;21.094;2022-07-29T05:59:16;17.27;;;11.98;;
57824;SDS011;43912;44.188;21.094;2022-07-29T06:01:42;17.10;;;11.45;;
57824;SDS011;43912;44.188;21.094;2022-07-29T06:04:08;18.20;;;10.43;;
57824;SDS011;43912;44.188;21.094;2022-07-29T06:06:35;12.35;;;8.65;;
57824;SDS011;43912;44.188;21.094;2022-07-29T06:09:01;13.02;;;6.88;;
57824;SDS011;43912;44.188;21.094;2022-07-29T06:11:27;15.45;;;9.20;;
57824;SDS011;43912;44.188;21.094;2022-07-29T06:13:54;10.77;;;8.40;;
57824;SDS011;43912;44.188;21.094;2022-07-29T06:16:20;13.57;;;9.65;;
57824;SDS011;43912;44.188;21.094;2022-07-29T06:18:46;11.50;;;7.75;;
57824;SDS011;43912;44.188;21.094;2022-07-29T06:21:12;11.55;;;8.38;;
57824;SDS011;43912;44.188;21.094;2022-07-29T06:23:38;10.88;;;8.02;;
57824;SDS011;43912;44.188;21.094;2022-07-29T06:26:04;11.65;;;7.40;;
57824;SDS011;43912;44.188;21.094;2022-07-29T06:28:31;12.52;;;8.77;;
57824;SDS011;43912;44.188;21.094;2022-07-29T06:30:57;8.07;;;5.97;;
57824;SDS011;43912;44.188;21.094;2022-07-29T06:33:23;11.90;;;7.03;;
57824;SDS011;43912;44.188;21.094;2022-07-29T06:35:50;12.07;;;6.13;;
57824;SDS011;43912;44.188;21.094;2022-07-29T06:38:16;7.72;;;5.80;;
57824;SDS011;43912;44.188;21.094;2022-07-29T06:40:42;9.18;;;5.60;;
57824;SDS011;43912;44.188;21.094;2022-07-29T06:45:56;10.07;;;5.97;;
57824;SDS011;43912;44.188;21.094;2022-07-29T06:48:22;9.18;;;5.80;;
57824;SDS011;43912;44.188;21.094;2022-07-29T06:50:48;8.15;;;5.88;;
57824;SDS011;43912;44.188;21.094;2022-07-29T06:53:14;8.95;;;6.20;;
57824;SDS011;43912;44.188;21.094;2022-07-29T06:55:40;8.27;;;6.07;;
57824;SDS011;43912;44.188;21.094;2022-07-29T06:58:07;9.40;;;6.78;;
57824;SDS011;43912;44.188;21.094;2022-07-29T07:00:34;11.50;;;6.60;;
57824;SDS011;43912;44.188;21.094;2022-07-29T07:03:00;8.50;;;6.65;;
57824;SDS011;43912;44.188;21.094;2022-07-29T07:05:26;10.05;;;7.90;;
57824;SDS011;43912;44.188;21.094;2022-07-29T07:07:52;10.43;;;7.45;;
57824;SDS011;43912;44.188;21.094;2022-07-29T07:10:18;11.43;;;9.63;;
57824;SDS011;43912;44.188;21.094;2022-07-29T07:12:44;14.10;;;7.63;;
57824;SDS011;43912;44.188;21.094;2022-07-29T07:15:11;10.95;;;8.02;;
57824;SDS011;43912;44.188;21.094;2022-07-29T07:17:37;11.70;;;8.95;;
57824;SDS011;43912;44.188;21.094;2022-07-29T07:20:04;9.73;;;8.30;;
57824;SDS011;43912;44.188;21.094;2022-07-29T07:22:30;10.00;;;8.45;;
57824;SDS011;43912;44.188;21.094;2022-07-29T07:24:56;11.30;;;7.45;;
57824;SDS011;43912;44.188;21.094;2022-07-29T07:27:23;9.73;;;5.97;;
57824;SDS011;43912;44.188;21.094;2022-07-29T07:29:49;8.93;;;5.63;;
57824;SDS011;43912;44.188;21.094;2022-07-29T07:32:15;9.68;;;6.57;;
57824;SDS011;43912;44.188;21.094;2022-07-29T07:34:42;11.82;;;6.40;;
57824;SDS011;43912;44.188;21.094;2022-07-29T07:37:08;8.27;;;5.80;;
57824;SDS011;43912;44.188;21.094;2022-07-29T07:39:34;10.77;;;6.25;;
57824;SDS011;43912;44.188;21.094;2022-07-29T07:42:01;9.82;;;5.88;;
57824;SDS011;43912;44.188;21.094;2022-07-29T07:44:27;8.55;;;5.57;;
57824;SDS011;43912;44.188;21.094;2022-07-29T07:46:53;8.77;;;6.35;;
57824;SDS011;43912;44.188;21.094;2022-07-29T07:49:19;9.43;;;5.65;;
57824;SDS011;43912;44.188;21.094;2022-07-29T07:51:45;10.45;;;5.80;;
57824;SDS011;43912;44.188;21.094;2022-07-29T07:54:11;10.30;;;6.00;;
57824;SDS011;43912;44.188;21.094;2022-07-29T07:56:37;8.15;;;5.22;;
57824;SDS011;43912;44.188;21.094;2022-07-29T07:59:03;8.43;;;5.43;;
57824;SDS011;43912;44.188;21.094;2022-07-29T08:01:29;8.07;;;4.95;;
57824;SDS011;43912;44.188;21.094;2022-07-29T08:03:55;8.05;;;5.40;;
57824;SDS011;43912;44.188;21.094;2022-07-29T08:06:21;8.10;;;5.10;;
57824;SDS011;43912;44.188;21.094;2022-07-29T08:08:50;8.15;;;5.47;;
57824;SDS011;43912;44.188;21.094;2022-07-29T08:11:16;8.00;;;4.88;;
57824;SDS011;43912;44.188;21.094;2022-07-29T08:13:42;9.07;;;5.18;;
57824;SDS011;43912;44.188;21.094;2022-07-29T08:16:08;8.18;;;5.47;;
57824;SDS011;43912;44.188;21.094;2022-07-29T08:18:38;8.00;;;4.78;;
57824;SDS011;43912;44.188;21.094;2022-07-29T08:21:05;8.35;;;4.97;;
57824;SDS011;43912;44.188;21.094;2022-07-29T08:23:31;10.30;;;6.03;;
57824;SDS011;43912;44.188;21.094;2022-07-29T08:26:18;7.30;;;5.25;;
57824;SDS011;43912;44.188;21.094;2022-07-29T08:28:45;7.13;;;4.95;;
57824;SDS011;43912;44.188;21.094;2022-07-29T08:31:14;8.55;;;5.30;;
57824;SDS011;43912;44.188;21.094;2022-07-29T08:33:41;8.18;;;4.40;;
57824;SDS011;43912;44.188;21.094;2022-07-29T08:36:07;9.20;;;4.72;;
57824;SDS011;43912;44.188;21.094;2022-07-29T08:38:33;7.78;;;4.78;;
57824;SDS011;43912;44.188;21.094;2022-07-29T08:41:00;7.63;;;4.60;;
57824;SDS011;43912;44.188;21.094;2022-07-29T08:43:29;10.50;;;4.88;;
57824;SDS011;43912;44.188;21.094;2022-07-29T08:45:56;7.63;;;4.97;;
57824;SDS011;43912;44.188;21.094;2022-07-29T08:48:23;7.10;;;4.88;;
57824;SDS011;43912;44.188;21.094;2022-07-29T08:50:50;7.47;;;4.40;;
57824;SDS011;43912;44.188;21.094;2022-07-29T08:53:18;7.43;;;5.20;;
57824;SDS011;43912;44.188;21.094;2022-07-29T08:55:45;14.35;;;5.22;;
57824;SDS011;43912;44.188;21.094;2022-07-29T08:58:12;11.15;;;5.15;;
57824;SDS011;43912;44.188;21.094;2022-07-29T09:00:41;7.82;;;4.95;;
57824;SDS011;43912;44.188;21.094;2022-07-29T09:03:07;8.27;;;4.68;;
57824;SDS011;43912;44.188;21.094;2022-07-29T09:05:34;7.97;;;5.22;;
57824;SDS011;43912;44.188;21.094;2022-07-29T09:08:00;8.95;;;4.72;;
57824;SDS011;43912;44.188;21.094;2022-07-29T09:10:27;7.05;;;4.78;;
57824;SDS011;43912;44.188;21.094;2022-07-29T09:12:56;7.28;;;4.75;;
57824;SDS011;43912;44.188;21.094;2022-07-29T09:15:22;6.15;;;4.28;;
57824;SDS011;43912;44.188;21.094;2022-07-29T09:17:49;7.45;;;4.28;;
57824;SDS011;43912;44.188;21.094;2022-07-29T09:20:20;8.52;;;4.72;;
57824;SDS011;43912;44.188;21.094;2022-07-29T09:22:47;8.20;;;4.18;;
57824;SDS011;43912;44.188;21.094;2022-07-29T09:25:35;7.55;;;4.70;;
57824;SDS011;43912;44.188;21.094;2022-07-29T09:28:13;8.50;;;4.45;;
57824;SDS011;43912;44.188;21.094;2022-07-29T09:30:52;8.27;;;4.30;;
57824;SDS011;43912;44.188;21.094;2022-07-29T09:33:19;9.68;;;4.65;;
57824;SDS011;43912;44.188;21.094;2022-07-29T09:35:45;8.95;;;4.50;;
57824;SDS011;43912;44.188;21.094;2022-07-29T09:38:12;6.78;;;4.40;;
57824;SDS011;43912;44.188;21.094;2022-07-29T09:40:38;7.00;;;4.82;;
57824;SDS011;43912;44.188;21.094;2022-07-29T09:43:12;6.55;;;4.40;;
57824;SDS011;43912;44.188;21.094;2022-07-29T09:45:38;7.07;;;4.53;;
57824;SDS011;43912;44.188;21.094;2022-07-29T09:48:14;7.53;;;4.65;;
57824;SDS011;43912;44.188;21.094;2022-07-29T09:50:41;7.28;;;4.57;;
57824;SDS011;43912;44.188;21.094;2022-07-29T09:53:09;9.27;;;5.15;;
57824;SDS011;43912;44.188;21.094;2022-07-29T09:56:08;9.30;;;4.90;;
57824;SDS011;43912;44.188;21.094;2022-07-29T09:58:27;9.98;;;4.72;;
57824;SDS011;43912;44.188;21.094;2022-07-29T10:00:54;9.50;;;5.50;;
57824;SDS011;43912;44.188;21.094;2022-07-29T10:03:21;7.85;;;4.82;;
57824;SDS011;43912;44.188;21.094;2022-07-29T10:06:03;8.55;;;4.47;;
57824;SDS011;43912;44.188;21.094;2022-07-29T10:08:30;7.55;;;4.68;;
57824;SDS011;43912;44.188;21.094;2022-07-29T10:11:08;9.32;;;5.60;;
57824;SDS011;43912;44.188;21.094;2022-07-29T10:13:34;7.85;;;5.03;;
57824;SDS011;43912;44.188;21.094;2022-07-29T10:16:00;8.30;;;5.20;;
57824;SDS011;43912;44.188;21.094;2022-07-29T10:18:27;8.32;;;5.55;;
57824;SDS011;43912;44.188;21.094;2022-07-29T10:20:53;7.75;;;5.07;;
57824;SDS011;43912;44.188;21.094;2022-07-29T10:23:19;9.38;;;4.60;;
57824;SDS011;43912;44.188;21.094;2022-07-29T10:25:45;8.40;;;5.28;;
57824;SDS011;43912;44.188;21.094;2022-07-29T10:28:12;8.15;;;5.20;;
57824;SDS011;43912;44.188;21.094;2022-07-29T10:30:38;7.40;;;4.80;;
57824;SDS011;43912;44.188;21.094;2022-07-29T10:46:25;10.18;;;5.53;;
57824;SDS011;43912;44.188;21.094;2022-07-29T10:54:17;7.43;;;4.97;;
57824;SDS011;43912;44.188;21.094;2022-07-29T10:56:44;7.88;;;4.60;;
57824;SDS011;43912;44.188;21.094;2022-07-29T11:01:42;7.93;;;4.72;;
57824;SDS011;43912;44.188;21.094;2022-07-29T11:04:08;6.93;;;4.80;;
57824;SDS011;43912;44.188;21.094;2022-07-29T11:09:19;7.40;;;4.95;;
57824;SDS011;43912;44.188;21.094;2022-07-29T11:11:46;7.70;;;4.88;;
57824;SDS011;43912;44.188;21.094;2022-07-29T11:14:12;7.32;;;5.00;;
57824;SDS011;43912;44.188;21.094;2022-07-29T11:19:23;8.00;;;5.45;;
57824;SDS011;43912;44.188;21.094;2022-07-29T11:21:50;8.82;;;5.55;;
57824;SDS011;43912;44.188;21.094;2022-07-29T11:24:27;8.95;;;5.45;;
57824;SDS011;43912;44.188;21.094;2022-07-29T11:29:50;9.23;;;5.30;;
57824;SDS011;43912;44.188;21.094;2022-07-29T11:32:17;8.60;;;5.57;;
57824;SDS011;43912;44.188;21.094;2022-07-29T11:34:46;8.88;;;5.10;;
57824;SDS011;43912;44.188;21.094;2022-07-29T11:37:13;7.65;;;5.20;;
57824;SDS011;43912;44.188;21.094;2022-07-29T11:39:46;10.73;;;4.95;;
57824;SDS011;43912;44.188;21.094;2022-07-29T11:45:01;7.95;;;5.30;;
57824;SDS011;43912;44.188;21.094;2022-07-29T11:47:31;7.88;;;5.43;;
57824;SDS011;43912;44.188;21.094;2022-07-29T11:49:58;9.73;;;5.55;;
57824;SDS011;43912;44.188;21.094;2022-07-29T11:52:44;11.32;;;6.00;;
57824;SDS011;43912;44.188;21.094;2022-07-29T11:55:15;9.18;;;5.72;;
57824;SDS011;43912;44.188;21.094;2022-07-29T11:57:54;8.10;;;5.45;;
57824;SDS011;43912;44.188;21.094;2022-07-29T12:00:41;9.25;;;5.38;;
57824;SDS011;43912;44.188;21.094;2022-07-29T12:03:09;9.93;;;5.50;;
57824;SDS011;43912;44.188;21.094;2022-07-29T12:05:40;7.50;;;4.95;;
57824;SDS011;43912;44.188;21.094;2022-07-29T12:08:13;8.27;;;5.40;;
57824;SDS011;43912;44.188;21.094;2022-07-29T12:10:41;9.45;;;5.40;;
57824;SDS011;43912;44.188;21.094;2022-07-29T12:13:09;8.70;;;5.50;;
57824;SDS011;43912;44.188;21.094;2022-07-29T12:15:35;9.48;;;5.68;;
57824;SDS011;43912;44.188;21.094;2022-07-29T12:18:14;8.63;;;5.80;;
57824;SDS011;43912;44.188;21.094;2022-07-29T12:20:41;7.93;;;5.05;;
57824;SDS011;43912;44.188;21.094;2022-07-29T12:23:08;9.60;;;5.70;;
57824;SDS011;43912;44.188;21.094;2022-07-29T12:25:36;8.63;;;5.75;;
57824;SDS011;43912;44.188;21.094;2022-07-29T12:28:04;8.25;;;5.35;;
57824;SDS011;43912;44.188;21.094;2022-07-29T12:30:34;8.30;;;6.00;;
57824;SDS011;43912;44.188;21.094;2022-07-29T12:33:00;9.25;;;5.78;;
57824;SDS011;43912;44.188;21.094;2022-07-29T12:35:26;8.85;;;5.57;;
57824;SDS011;43912;44.188;21.094;2022-07-29T12:37:52;9.05;;;6.22;;
57824;SDS011;43912;44.188;21.094;2022-07-29T12:40:19;8.43;;;6.00;;
57824;SDS011;43912;44.188;21.094;2022-07-29T12:43:06;8.50;;;5.35;;
57824;SDS011;43912;44.188;21.094;2022-07-29T12:45:34;10.05;;;5.88;;
57824;SDS011;43912;44.188;21.094;2022-07-29T12:48:00;10.00;;;6.03;;
57824;SDS011;43912;44.188;21.094;2022-07-29T12:50:27;9.43;;;5.97;;
57824;SDS011;43912;44.188;21.094;2022-07-29T12:52:53;7.45;;;5.75;;
57824;SDS011;43912;44.188;21.094;2022-07-29T12:55:42;10.00;;;5.57;;
57824;SDS011;43912;44.188;21.094;2022-07-29T12:58:09;8.13;;;5.65;;
57824;SDS011;43912;44.188;21.094;2022-07-29T13:00:35;10.70;;;6.35;;
57824;SDS011;43912;44.188;21.094;2022-07-29T13:03:01;8.77;;;5.78;;
57824;SDS011;43912;44.188;21.094;2022-07-29T13:05:40;10.00;;;6.75;;
57824;SDS011;43912;44.188;21.094;2022-07-29T13:08:10;9.00;;;5.68;;
57824;SDS011;43912;44.188;21.094;2022-07-29T13:10:37;8.30;;;5.68;;
57824;SDS011;43912;44.188;21.094;2022-07-29T13:13:14;9.10;;;6.32;;
57824;SDS011;43912;44.188;21.094;2022-07-29T13:15:41;11.45;;;6.60;;
57824;SDS011;43912;44.188;21.094;2022-07-29T13:20:53;8.52;;;6.00;;
57824;SDS011;43912;44.188;21.094;2022-07-29T13:23:19;9.85;;;6.25;;
57824;SDS011;43912;44.188;21.094;2022-07-29T13:25:46;8.32;;;6.05;;
57824;SDS011;43912;44.188;21.094;2022-07-29T13:28:12;12.10;;;6.38;;
57824;SDS011;43912;44.188;21.094;2022-07-29T13:30:39;10.10;;;5.75;;
57824;SDS011;43912;44.188;21.094;2022-07-29T13:33:06;8.18;;;5.57;;
57824;SDS011;43912;44.188;21.094;2022-07-29T13:35:32;9.00;;;5.70;;
57824;SDS011;43912;44.188;21.094;2022-07-29T13:37:58;9.73;;;6.13;;
57824;SDS011;43912;44.188;21.094;2022-07-29T13:40:24;9.25;;;5.80;;
57824;SDS011;43912;44.188;21.094;2022-07-29T13:42:50;8.27;;;6.03;;
57824;SDS011;43912;44.188;21.094;2022-07-29T13:45:17;9.30;;;6.30;;
57824;SDS011;43912;44.188;21.094;2022-07-29T13:47:43;9.18;;;5.63;;
57824;SDS011;43912;44.188;21.094;2022-07-29T13:50:10;8.82;;;5.90;;
57824;SDS011;43912;44.188;21.094;2022-07-29T13:52:36;8.88;;;5.78;;
57824;SDS011;43912;44.188;21.094;2022-07-29T13:55:03;8.95;;;5.70;;
57824;SDS011;43912;44.188;21.094;2022-07-29T13:57:30;12.63;;;6.07;;
57824;SDS011;43912;44.188;21.094;2022-07-29T13:59:57;8.18;;;5.70;;
57824;SDS011;43912;44.188;21.094;2022-07-29T14:02:23;10.85;;;5.75;;
57824;SDS011;43912;44.188;21.094;2022-07-29T14:04:49;10.15;;;5.85;;
57824;SDS011;43912;44.188;21.094;2022-07-29T14:07:15;7.90;;;5.95;;
57824;SDS011;43912;44.188;21.094;2022-07-29T14:09:41;10.55;;;6.30;;
57824;SDS011;43912;44.188;21.094;2022-07-29T14:12:07;11.20;;;5.85;;
57824;SDS011;43912;44.188;21.094;2022-07-29T14:14:34;7.82;;;5.78;;
57824;SDS011;43912;44.188;21.094;2022-07-29T14:17:01;12.00;;;5.63;;
57824;SDS011;43912;44.188;21.094;2022-07-29T14:19:28;9.65;;;5.60;;
57824;SDS011;43912;44.188;21.094;2022-07-29T14:21:54;10.10;;;6.50;;
57824;SDS011;43912;44.188;21.094;2022-07-29T14:24:20;8.52;;;6.00;;
57824;SDS011;43912;44.188;21.094;2022-07-29T14:26:47;7.95;;;6.28;;
57824;SDS011;43912;44.188;21.094;2022-07-29T14:29:14;7.85;;;5.57;;
57824;SDS011;43912;44.188;21.094;2022-07-29T14:31:40;9.20;;;6.18;;
57824;SDS011;43912;44.188;21.094;2022-07-29T14:34:07;8.80;;;5.50;;
57824;SDS011;43912;44.188;21.094;2022-07-29T14:36:34;9.43;;;5.85;;
57824;SDS011;43912;44.188;21.094;2022-07-29T14:39:00;9.68;;;5.82;;
57824;SDS011;43912;44.188;21.094;2022-07-29T14:41:26;9.18;;;5.60;;
57824;SDS011;43912;44.188;21.094;2022-07-29T14:43:53;8.98;;;6.63;;
57824;SDS011;43912;44.188;21.094;2022-07-29T14:46:19;8.93;;;5.90;;
57824;SDS011;43912;44.188;21.094;2022-07-29T14:48:45;8.13;;;5.90;;
57824;SDS011;43912;44.188;21.094;2022-07-29T14:51:11;8.18;;;5.60;;
57824;SDS011;43912;44.188;21.094;2022-07-29T14:53:37;10.20;;;6.13;;
57824;SDS011;43912;44.188;21.094;2022-07-29T14:56:04;8.85;;;5.63;;
57824;SDS011;43912;44.188;21.094;2022-07-29T14:58:30;7.97;;;5.63;;
57824;SDS011;43912;44.188;21.094;2022-07-29T15:00:56;8.25;;;5.93;;
57824;SDS011;43912;44.188;21.094;2022-07-29T15:03:22;8.55;;;5.85;;
57824;SDS011;43912;44.188;21.094;2022-07-29T15:05:48;9.15;;;5.85;;
57824;SDS011;43912;44.188;21.094;2022-07-29T15:08:14;11.23;;;6.35;;
57824;SDS011;43912;44.188;21.094;2022-07-29T15:10:40;9.65;;;6.30;;
57824;SDS011;43912;44.188;21.094;2022-07-29T15:13:06;15.40;;;6.03;;
57824;SDS011;43912;44.188;21.094;2022-07-29T15:15:33;10.02;;;5.93;;
57824;SDS011;43912;44.188;21.094;2022-07-29T15:17:59;11.10;;;5.72;;
57824;SDS011;43912;44.188;21.094;2022-07-29T15:20:25;10.10;;;5.88;;
57824;SDS011;43912;44.188;21.094;2022-07-29T15:22:52;9.88;;;6.20;;
57824;SDS011;43912;44.188;21.094;2022-07-29T15:25:20;12.38;;;6.10;;
57824;SDS011;43912;44.188;21.094;2022-07-29T15:27:46;9.98;;;6.18;;